Darstellungsparameter: Aktuell verwendete Einstellungen:
Skalierung der Graphiken ... ?
xyx+y,   Skalierungsfaktor:      Skalierung: Modus: x, Faktor: 1
Darstellungszeitraum ... ?
Vom - - bis: - -   Zeitraum: 29.05.2004 - 04.06.2004
Min/Max/Avg-Anzeige ... ?
Zeige MMA aktuell
Zeige MMA Monat
Zeige MMA alles
Zeige --A aktuell
Zeige --A Monat
Zeige --A alles
Keine MMA-Anzeige
MMA:
Keine MMA-Graphiken
MMA-Basis: 29.05.2004 - 04.06.2004
Quicknavigation für Darstellung... ?
Tage:      1T, 2T, 3T, 5T -1T -2T -3T -5T +1T +2T +3T +5T
Wochen: 1W, 2W, 3W -1W -2W -3W +1W +2W +3W
Monate: 1M, 3M, 6M -1M -3M -6M +1M +3M +6M
Jahre:    1J, 3J, 5J, 10J -1J -3J -5J -10J +1J +3J +5J +10J
Nutze für die Darstellung ... ?
Originaldaten oder Mittelwerte auf ...
Stundenbasis Tagesbasis Wochenbasis
Monatsbasis Jahresbasis      Datenbasis: Original-Daten
Darstellen als:
Statistik (Auto) Statistik J:M      Darstellung:
Zur Graphik,    zurück zur Übersicht aller Sensoren.
 
Tabellarische Datenbersicht: ?
 
Sensor: Nr:Datum:Temp:Abs-Feuchte:Windchill:Wind:
Aussen-T/F 1 29-05-2004 00:05:01 11.7 C 6.17 g/m*3 11.7 C 0 km/h
2 29-05-2004 00:17:00 11.5 C 6.3 g/m*3 11.5 C 0 km/h
3 29-05-2004 00:29:00 11.1 C 6.25 g/m*3 11.1 C 0 km/h
4 29-05-2004 00:41:00 11 C 6.21 g/m*3 11 C 0 km/h
5 29-05-2004 00:53:01 10.7 C 6.29 g/m*3 10.7 C 0 km/h
6 29-05-2004 01:05:01 10.7 C 6.29 g/m*3 10.7 C 0 km/h
7 29-05-2004 01:17:01 10.1 C 6.15 g/m*3 10.1 C 0 km/h
8 29-05-2004 01:29:01 9.8 C 6.31 g/m*3 9.8 C 0 km/h
9 29-05-2004 01:41:01 9.6 C 6.23 g/m*3 9.6 C 0 km/h
10 29-05-2004 01:53:01 9.4 C 6.24 g/m*3 9.4 C 0 km/h
11 29-05-2004 02:05:01 9.2 C 6.16 g/m*3 9.2 C 0 km/h
12 29-05-2004 02:17:01 9 C 6.26 g/m*3 9 C 0 km/h
13 29-05-2004 02:29:01 9 C 6.26 g/m*3 9 C 0 km/h
14 29-05-2004 02:41:01 8.7 C 6.31 g/m*3 8.7 C 0 km/h
15 29-05-2004 02:54:03 8.6 C 6.27 g/m*3 8.6 C 0 km/h
16 29-05-2004 03:06:03 8.2 C 6.2 g/m*3 8.2 C 0 km/h
17 29-05-2004 03:18:03 8 C 6.2 g/m*3 8 C 0 km/h
18 29-05-2004 03:30:03 7.9 C 6.32 g/m*3 7.9 C 0 km/h
19 29-05-2004 03:42:01 7.8 C 6.37 g/m*3 7.8 C 0 km/h
20 29-05-2004 03:54:01 7.6 C 6.28 g/m*3 7.6 C 0 km/h
21 29-05-2004 04:06:01 7.6 C 6.28 g/m*3 7.6 C 0 km/h
22 29-05-2004 04:18:01 7.5 C 6.24 g/m*3 7.5 C 0 km/h
23 29-05-2004 04:30:01 7.2 C 6.2 g/m*3 7.2 C 0 km/h
24 29-05-2004 04:42:01 7.2 C 6.2 g/m*3 7.2 C 0 km/h
25 29-05-2004 04:54:01 6.9 C 6.24 g/m*3 6.9 C 0 km/h
Sensor: Nr:Datum:Temp:Abs-Feuchte:Windchill:Wind:
Aussen-T/F 26 29-05-2004 05:06:01 6.9 C 6.24 g/m*3 6.9 C 0 km/h
27 29-05-2004 05:18:01 6.7 C 6.15 g/m*3 6.7 C 0 km/h
28 29-05-2004 05:30:01 6.7 C 6.15 g/m*3 6.7 C 0 km/h
29 29-05-2004 05:42:01 6.4 C 6.11 g/m*3 6.4 C 0 km/h
30 29-05-2004 05:54:01 6.4 C 6.18 g/m*3 6.4 C 0 km/h
31 29-05-2004 06:06:01 6.5 C 6.15 g/m*3 6.5 C 0 km/h
32 29-05-2004 06:18:00 6.5 C 6.22 g/m*3 6.5 C 0 km/h
33 29-05-2004 06:30:00 6.6 C 6.27 g/m*3 6.6 C 0 km/h
34 29-05-2004 06:42:00 6.7 C 6.31 g/m*3 6.7 C 0 km/h
35 29-05-2004 06:54:01 6.6 C 6.27 g/m*3 6.6 C 0 km/h
36 29-05-2004 07:06:01 6.7 C 6.38 g/m*3 6.7 C 0 km/h
37 29-05-2004 07:18:01 6.9 C 6.47 g/m*3 6.9 C 0 km/h
38 29-05-2004 07:30:01 7 C 6.35 g/m*3 7 C 0 km/h
39 29-05-2004 07:42:01 7.3 C 6.4 g/m*3 7.3 C 0 km/h
40 29-05-2004 07:54:01 7.5 C 6.48 g/m*3 7.5 C 0 km/h
41 29-05-2004 08:06:01 7.8 C 6.53 g/m*3 7.8 C 0 km/h
42 29-05-2004 08:18:01 8.1 C 6.57 g/m*3 8.1 C 0 km/h
43 29-05-2004 08:30:01 8.5 C 6.66 g/m*3 8.5 C 0 km/h
44 29-05-2004 08:35:00 8.8 C 6.79 g/m*3 8.8 C 0 km/h
45 29-05-2004 08:47:01 9.6 C 6.87 g/m*3 9.6 C 0 km/h
46 29-05-2004 08:59:01 10.1 C 7 g/m*3 10.1 C 0 km/h
47 29-05-2004 09:11:01 11.2 C 7.3 g/m*3 11.2 C 0 km/h
48 29-05-2004 09:23:01 12.1 C 7.4 g/m*3 12.1 C 0 km/h
49 29-05-2004 09:35:01 13 C 7.48 g/m*3 13 C 0 km/h
50 29-05-2004 09:47:01 13.8 C 7.74 g/m*3 13.8 C 0 km/h
Sensor: Nr:Datum:Temp:Abs-Feuchte:Windchill:Wind:
Aussen-T/F 51 29-05-2004 09:59:01 14.8 C 7.22 g/m*3 14.8 C 0 km/h
52 29-05-2004 10:11:01 15.7 C 6.96 g/m*3 15.7 C 0 km/h
53 29-05-2004 10:23:01 16.8 C 6.86 g/m*3 16.8 C 0 km/h
54 29-05-2004 10:35:01 17.3 C 6.78 g/m*3 17.3 C 0 km/h
55 29-05-2004 10:47:01 18.2 C 6.68 g/m*3 18.2 C 0 km/h
56 29-05-2004 10:59:01 18.8 C 6.6 g/m*3 18.8 C 0 km/h
57 29-05-2004 11:11:01 19.7 C 6.45 g/m*3 19.7 C 0 km/h
58 29-05-2004 11:23:01 20.1 C 6.43 g/m*3 20.1 C 0 km/h
59 29-05-2004 11:35:01 20.3 C 5.63 g/m*3 20.3 C 0 km/h
60 29-05-2004 11:47:01 21 C 5.86 g/m*3 21 C 0 km/h
61 29-05-2004 11:59:01 21.4 C 4.69 g/m*3 21.4 C 0 km/h
62 29-05-2004 12:11:01 22.1 C 4.49 g/m*3 22.1 C 0 km/h
63 29-05-2004 12:23:02 21.8 C 4.8 g/m*3 21.8 C 0 km/h
64 29-05-2004 12:35:02 22.2 C 4.91 g/m*3 22.2 C 0 km/h
65 29-05-2004 12:47:01 21.8 C 4.8 g/m*3 21.8 C 0 km/h
66 29-05-2004 12:59:02 23.7 C 4.28 g/m*3 23.7 C 0 km/h
67 29-05-2004 13:11:01 23.9 C 4.33 g/m*3 23.9 C 0 km/h
68 29-05-2004 13:23:01 25.3 C 4.68 g/m*3 25.3 C 0 km/h
69 29-05-2004 13:35:01 25.4 C 4.71 g/m*3 25.4 C 0 km/h
70 29-05-2004 13:47:01 25.3 C 4.68 g/m*3 25.3 C 0 km/h
71 29-05-2004 13:59:01 24.7 C 4.53 g/m*3 24.7 C 0 km/h
72 29-05-2004 14:11:01 24.8 C 4.55 g/m*3 24.8 C 0 km/h
73 29-05-2004 14:23:01 24.6 C 4.73 g/m*3 24.6 C 0 km/h
74 29-05-2004 14:35:02 24.4 C 4.45 g/m*3 24.4 C 0 km/h
75 29-05-2004 14:47:01 25.3 C 4.68 g/m*3 25.3 C 0 km/h
Sensor: Nr:Datum:Temp:Abs-Feuchte:Windchill:Wind:
Aussen-T/F 76 29-05-2004 14:59:01 25.4 C 4.71 g/m*3 25.4 C 0 km/h
77 29-05-2004 15:11:02 26.2 C 4.92 g/m*3 26.2 C 0 km/h
78 29-05-2004 15:23:01 26.5 C 5.01 g/m*3 26.5 C 0 km/h
79 29-05-2004 15:35:02 26.3 C 4.95 g/m*3 26.3 C 0 km/h
80 29-05-2004 15:47:01 27.1 C 5.18 g/m*3 27.1 C 0 km/h
81 29-05-2004 15:59:01 27.6 C 5.32 g/m*3 27.6 C 0 km/h
82 29-05-2004 16:11:02 28.6 C 5.62 g/m*3 28.6 C 0 km/h
83 29-05-2004 16:23:02 28.7 C 5.65 g/m*3 28.7 C 0 km/h
84 29-05-2004 16:35:02 27.7 C 5.35 g/m*3 27.7 C 0 km/h
85 29-05-2004 16:47:02 27.6 C 5.32 g/m*3 27.6 C 0 km/h
86 29-05-2004 16:59:02 26.8 C 5.09 g/m*3 26.8 C 0 km/h
87 29-05-2004 17:11:02 27.7 C 5.35 g/m*3 27.7 C 0 km/h
88 29-05-2004 17:23:02 28.9 C 5.71 g/m*3 28.9 C 0 km/h
89 29-05-2004 17:35:02 27.9 C 5.41 g/m*3 27.9 C 0 km/h
90 29-05-2004 17:47:02 28.6 C 5.62 g/m*3 28.6 C 0 km/h
91 29-05-2004 17:59:02 28.6 C 5.62 g/m*3 28.6 C 0 km/h
92 29-05-2004 18:11:02 28.3 C 5.53 g/m*3 28.3 C 0 km/h
93 29-05-2004 18:23:02 28.7 C 5.65 g/m*3 28.7 C 0 km/h
94 29-05-2004 18:35:02 28.1 C 5.47 g/m*3 28.1 C 0 km/h
95 29-05-2004 18:47:01 27 C 5.15 g/m*3 27 C 0 km/h
96 29-05-2004 18:59:01 27.3 C 5.23 g/m*3 27.3 C 0 km/h
97 29-05-2004 19:11:01 27.3 C 5.23 g/m*3 27.3 C 0 km/h
98 29-05-2004 19:23:01 27.5 C 5.29 g/m*3 27.5 C 0 km/h
99 29-05-2004 19:35:01 26.8 C 5.09 g/m*3 26.8 C 0 km/h
100 29-05-2004 19:47:01 26.2 C 5.66 g/m*3 26.2 C 0 km/h
Sensor: Nr:Datum:Temp:Abs-Feuchte:Windchill:Wind:
Aussen-T/F 101 29-05-2004 19:59:01 26 C 5.36 g/m*3 26 C 0 km/h
102 29-05-2004 20:11:01 25.8 C 5.54 g/m*3 25.8 C 0 km/h
103 29-05-2004 20:23:01 25.6 C 6.19 g/m*3 25.6 C 0 km/h
104 29-05-2004 20:35:01 24.2 C 6.16 g/m*3 24.2 C 0 km/h
105 29-05-2004 20:47:01 22.4 C 6.16 g/m*3 22.4 C 0 km/h
106 29-05-2004 20:59:01 20.9 C 6.37 g/m*3 20.9 C 0 km/h
107 29-05-2004 21:11:01 19.9 C 6.19 g/m*3 19.9 C 0 km/h
108 29-05-2004 21:23:01 19.2 C 5.94 g/m*3 19.2 C 0 km/h
109 29-05-2004 21:35:01 18.7 C 5.92 g/m*3 18.7 C 0 km/h
110 29-05-2004 21:47:01 18.1 C 5.87 g/m*3 18.1 C 0 km/h
111 29-05-2004 21:59:01 17.7 C 6.19 g/m*3 17.7 C 0 km/h
112 29-05-2004 22:11:01 17.7 C 6.19 g/m*3 17.7 C 0 km/h
113 29-05-2004 22:23:01 17.5 C 6.26 g/m*3 17.5 C 0 km/h
114 29-05-2004 22:35:01 17.2 C 6.15 g/m*3 17.2 C 0 km/h
115 29-05-2004 22:47:01 17.1 C 6.26 g/m*3 17.1 C 0 km/h
116 29-05-2004 22:59:01 16.8 C 6.29 g/m*3 16.8 C 0 km/h
117 29-05-2004 23:11:01 16.4 C 6.28 g/m*3 16.4 C 0 km/h
118 29-05-2004 23:23:01 16.2 C 6.48 g/m*3 16.2 C 0 km/h
119 29-05-2004 23:35:01 16.2 C 6.34 g/m*3 16.2 C 0 km/h
120 29-05-2004 23:47:01 16 C 6.27 g/m*3 16 C 0 km/h
121 29-05-2004 23:59:01 15.5 C 6.08 g/m*3 15.5 C 0 km/h
122 30-05-2004 00:11:01 15.4 C 6.31 g/m*3 15.4 C 0 km/h
123 30-05-2004 00:23:01 15.4 C 6.31 g/m*3 15.4 C 0 km/h
124 30-05-2004 00:35:01 14.9 C 6.12 g/m*3 14.9 C 0 km/h
125 30-05-2004 00:47:01 14.9 C 6.25 g/m*3 14.9 C 0 km/h
Sensor: Nr:Datum:Temp:Abs-Feuchte:Windchill:Wind:
Aussen-T/F 126 30-05-2004 00:59:01 14.7 C 6.17 g/m*3 14.7 C 0 km/h
127 30-05-2004 01:11:01 14.5 C 6.22 g/m*3 14.5 C 0 km/h
128 30-05-2004 01:23:01 14.2 C 6.35 g/m*3 14.2 C 0 km/h
129 30-05-2004 01:35:01 13.9 C 6.35 g/m*3 13.9 C 0 km/h
130 30-05-2004 01:47:01 13.7 C 6.51 g/m*3 13.7 C 0 km/h
131 30-05-2004 01:59:01 13.4 C 6.74 g/m*3 13.4 C 0 km/h
132 30-05-2004 02:11:01 13.2 C 6.89 g/m*3 13.2 C 0 km/h
133 30-05-2004 02:23:01 13 C 7.14 g/m*3 13 C 0 km/h
134 30-05-2004 02:35:01 12.5 C 7.26 g/m*3 12.5 C 0 km/h
135 30-05-2004 02:48:02 12.4 C 7.43 g/m*3 12.4 C 0 km/h
136 30-05-2004 03:00:02 12.2 C 7.34 g/m*3 12.2 C 0 km/h
137 30-05-2004 03:12:02 12 C 7.25 g/m*3 12 C 0 km/h
138 30-05-2004 03:24:02 11.7 C 7.32 g/m*3 11.7 C 0 km/h
139 30-05-2004 03:36:01 11.5 C 7.23 g/m*3 11.5 C 0 km/h
140 30-05-2004 03:48:01 11.3 C 7.24 g/m*3 11.3 C 0 km/h
141 30-05-2004 04:00:01 11.2 C 7.2 g/m*3 11.2 C 0 km/h
142 30-05-2004 04:12:01 10.9 C 7.06 g/m*3 10.9 C 0 km/h
143 30-05-2004 04:24:01 10.6 C 7.12 g/m*3 10.6 C 0 km/h
144 30-05-2004 04:36:01 10.7 C 7.07 g/m*3 10.7 C 0 km/h
145 30-05-2004 04:48:01 10.4 C 6.94 g/m*3 10.4 C 0 km/h
146 30-05-2004 05:00:01 10.4 C 6.94 g/m*3 10.4 C 0 km/h
147 30-05-2004 05:12:01 10.1 C 6.81 g/m*3 10.1 C 0 km/h
148 30-05-2004 05:24:01 10 C 6.86 g/m*3 10 C 0 km/h
149 30-05-2004 05:36:01 10 C 6.86 g/m*3 10 C 0 km/h
150 30-05-2004 05:48:01 10 C 6.86 g/m*3 10 C 0 km/h
Sensor: Nr:Datum:Temp:Abs-Feuchte:Windchill:Wind:
Aussen-T/F 151 30-05-2004 06:00:01 10 C 6.86 g/m*3 10 C 0 km/h
152 30-05-2004 06:12:01 10 C 6.86 g/m*3 10 C 0 km/h
153 30-05-2004 06:24:01 9.9 C 7 g/m*3 9.9 C 0 km/h
154 30-05-2004 06:36:01 10 C 6.95 g/m*3 10 C 0 km/h
155 30-05-2004 06:48:01 10.1 C 6.9 g/m*3 10.1 C 0 km/h
156 30-05-2004 07:00:01 10 C 6.86 g/m*3 10 C 0 km/h
157 30-05-2004 07:12:01 10.2 C 7.04 g/m*3 10.2 C 0 km/h
158 30-05-2004 07:24:01 10.2 C 7.14 g/m*3 10.2 C 0 km/h
159 30-05-2004 07:36:01 10 C 7.05 g/m*3 10 C 0 km/h
160 30-05-2004 07:48:01 10 C 7.14 g/m*3 10 C 0 km/h
161 30-05-2004 08:00:01 10.2 C 7.04 g/m*3 10.2 C 0 km/h
162 30-05-2004 08:12:01 10.5 C 7.08 g/m*3 10.5 C 0 km/h
163 30-05-2004 08:24:01 10.9 C 7.26 g/m*3 10.9 C 0 km/h
164 30-05-2004 08:36:01 11.4 C 7.29 g/m*3 11.4 C 0 km/h
165 30-05-2004 08:48:01 12.1 C 7.51 g/m*3 12.1 C 0 km/h
166 30-05-2004 09:00:01 12.9 C 7.66 g/m*3 12.9 C 0 km/h
167 30-05-2004 09:12:02 13.6 C 7.77 g/m*3 13.6 C 0 km/h
168 30-05-2004 09:16:02 13.6 C 7.77 g/m*3 13.6 C 0 km/h
169 30-05-2004 09:21:02 13.9 C 7.91 g/m*3 13.9 C 0 km/h
170 30-05-2004 09:26:02 14.3 C 7.99 g/m*3 14.3 C 0 km/h
171 30-05-2004 09:31:02 14.7 C 8.06 g/m*3 14.7 C 0 km/h
172 30-05-2004 09:36:02 14.7 C 8.06 g/m*3 14.7 C 0 km/h
173 30-05-2004 09:41:02 15.4 C 7.88 g/m*3 15.4 C 0 km/h
174 30-05-2004 09:46:01 16 C 8.04 g/m*3 16 C 0 km/h
175 30-05-2004 09:51:01 16.6 C 8.19 g/m*3 16.6 C 0 km/h
Sensor: Nr:Datum:Temp:Abs-Feuchte:Windchill:Wind:
Aussen-T/F 176 30-05-2004 09:56:01 16.6 C 8.19 g/m*3 16.6 C 0 km/h
177 30-05-2004 10:01:01 17.5 C 7.6 g/m*3 17.5 C 0 km/h
178 30-05-2004 10:06:01 17.9 C 7.48 g/m*3 17.9 C 0 km/h
179 30-05-2004 10:11:01 18.3 C 7.04 g/m*3 18.3 C 0 km/h
180 30-05-2004 10:16:01 18.7 C 6.72 g/m*3 18.7 C 0 km/h
181 30-05-2004 10:21:01 19.3 C 6.8 g/m*3 19.3 C 0 km/h
182 30-05-2004 10:26:01 19.3 C 6.47 g/m*3 19.3 C 0 km/h
183 30-05-2004 10:31:48 19.7 C 6.11 g/m*3 19.7 C 0 km/h
184 30-05-2004 10:36:48 20 C 6.05 g/m*3 20 C 0 km/h
185 30-05-2004 10:42:01 20.6 C 6.09 g/m*3 20.6 C 0 km/h
186 30-05-2004 10:54:01 21.1 C 5.53 g/m*3 21.1 C 0 km/h
187 30-05-2004 11:06:01 21.9 C 5.4 g/m*3 21.9 C 0 km/h
188 30-05-2004 11:18:01 22.1 C 5.08 g/m*3 22.1 C 0 km/h
189 30-05-2004 11:30:01 22.6 C 4.62 g/m*3 22.6 C 0 km/h
190 30-05-2004 11:42:01 22.9 C 4.5 g/m*3 22.9 C 0 km/h
191 30-05-2004 11:54:01 23.2 C 4.37 g/m*3 23.2 C 0 km/h
192 30-05-2004 12:06:01 23.8 C 4.52 g/m*3 23.8 C 0 km/h
193 30-05-2004 12:18:01 23.8 C 4.52 g/m*3 23.8 C 0 km/h
194 30-05-2004 12:30:01 24.5 C 4.48 g/m*3 24.5 C 0 km/h
195 30-05-2004 12:42:01 25.1 C 4.63 g/m*3 25.1 C 0 km/h
196 30-05-2004 12:54:01 25.6 C 4.76 g/m*3 25.6 C 0 km/h
197 30-05-2004 13:06:01 25.4 C 4.71 g/m*3 25.4 C 0 km/h
198 30-05-2004 13:18:01 25.4 C 4.71 g/m*3 25.4 C 0 km/h
199 30-05-2004 13:30:01 26.1 C 4.9 g/m*3 26.1 C 0 km/h
200 30-05-2004 13:42:01 25 C 4.6 g/m*3 25 C 0 km/h
Sensor: Nr:Datum:Temp:Abs-Feuchte:Windchill:Wind:
Aussen-T/F 201 30-05-2004 13:54:01 25.9 C 4.84 g/m*3 25.9 C 0 km/h
202 30-05-2004 14:07:01 25.9 C 4.84 g/m*3 25.9 C 0 km/h
203 30-05-2004 14:19:01 26.5 C 5.01 g/m*3 26.5 C 0 km/h
204 30-05-2004 14:31:01 26.5 C 5.01 g/m*3 26.5 C 0 km/h
205 30-05-2004 14:43:01 26.5 C 5.01 g/m*3 26.5 C 0 km/h
206 30-05-2004 14:55:01 26.5 C 5.01 g/m*3 26.5 C 0 km/h
207 30-05-2004 15:07:01 26.5 C 5.01 g/m*3 26.5 C 0 km/h
208 30-05-2004 15:19:01 26.5 C 5.01 g/m*3 26.5 C 0 km/h
209 30-05-2004 15:31:01 26.5 C 5.01 g/m*3 26.5 C 0 km/h
210 30-05-2004 15:43:01 26.5 C 5.01 g/m*3 26.5 C 0 km/h
211 30-05-2004 15:55:01 26.5 C 5.01 g/m*3 26.5 C 0 km/h
212 30-05-2004 16:07:01 26.5 C 5.01 g/m*3 26.5 C 0 km/h
213 30-05-2004 16:19:01 27.1 C 5.18 g/m*3 27.1 C 0 km/h
214 30-05-2004 16:31:01 27.9 C 5.41 g/m*3 27.9 C 0 km/h
215 30-05-2004 16:43:01 28.5 C 5.59 g/m*3 28.5 C 0 km/h
216 30-05-2004 16:55:01 28.4 C 5.56 g/m*3 28.4 C 0 km/h
217 30-05-2004 17:07:01 28.9 C 5.71 g/m*3 28.9 C 0 km/h
218 30-05-2004 17:19:02 28.3 C 5.53 g/m*3 28.3 C 0 km/h
219 30-05-2004 17:31:01 27.6 C 5.32 g/m*3 27.6 C 0 km/h
220 30-05-2004 17:43:01 28 C 5.44 g/m*3 28 C 0 km/h
221 30-05-2004 17:55:01 28.1 C 5.74 g/m*3 28.1 C 0 km/h
222 30-05-2004 18:07:01 27.5 C 5.29 g/m*3 27.5 C 0 km/h
223 30-05-2004 18:19:01 27.1 C 5.95 g/m*3 27.1 C 0 km/h
224 30-05-2004 18:31:01 26.5 C 6.76 g/m*3 26.5 C 0 km/h
225 30-05-2004 18:43:01 26 C 7.3 g/m*3 26 C 0 km/h
Sensor: Nr:Datum:Temp:Abs-Feuchte:Windchill:Wind:
Aussen-T/F 226 30-05-2004 18:55:01 24.7 C 7.02 g/m*3 24.7 C 0 km/h
227 30-05-2004 19:07:01 24.4 C 5.56 g/m*3 24.4 C 0 km/h
228 30-05-2004 19:19:01 24.3 C 6.2 g/m*3 24.3 C 0 km/h
229 30-05-2004 19:31:01 23.4 C 5.89 g/m*3 23.4 C 0 km/h
230 30-05-2004 19:43:01 23.3 C 6.06 g/m*3 23.3 C 0 km/h
231 30-05-2004 19:55:01 23.1 C 6.2 g/m*3 23.1 C 0 km/h
232 30-05-2004 20:07:01 22.9 C 6.34 g/m*3 22.9 C 0 km/h
233 30-05-2004 20:19:01 22.8 C 6.5 g/m*3 22.8 C 0 km/h
234 30-05-2004 20:31:01 22.5 C 6.79 g/m*3 22.5 C 0 km/h
235 30-05-2004 20:43:01 22.1 C 6.83 g/m*3 22.1 C 0 km/h
236 30-05-2004 20:55:01 21.6 C 7.02 g/m*3 21.6 C 0 km/h
237 30-05-2004 21:07:01 21.1 C 7 g/m*3 21.1 C 0 km/h
238 30-05-2004 21:19:02 20.4 C 6.9 g/m*3 20.4 C 0 km/h
239 30-05-2004 21:31:02 20 C 7.26 g/m*3 20 C 0 km/h
240 30-05-2004 21:43:02 19.7 C 7.13 g/m*3 19.7 C 0 km/h
241 30-05-2004 21:55:02 19.8 C 7.17 g/m*3 19.8 C 0 km/h
242 30-05-2004 22:07:02 20 C 6.91 g/m*3 20 C 0 km/h
243 30-05-2004 22:19:02 20.1 C 6.95 g/m*3 20.1 C 0 km/h
244 30-05-2004 22:31:02 19.8 C 7 g/m*3 19.8 C 0 km/h
245 30-05-2004 22:43:02 19.3 C 7.46 g/m*3 19.3 C 0 km/h
246 30-05-2004 22:55:02 18.9 C 8.1 g/m*3 18.9 C 0 km/h
247 30-05-2004 23:07:02 18.7 C 8.49 g/m*3 18.7 C 0 km/h
248 30-05-2004 23:19:02 18.5 C 8.86 g/m*3 18.5 C 0 km/h
249 30-05-2004 23:31:02 18.6 C 8.91 g/m*3 18.6 C 0 km/h
250 30-05-2004 23:43:02 18.4 C 8.97 g/m*3 18.4 C 0 km/h
Sensor: Nr:Datum:Temp:Abs-Feuchte:Windchill:Wind:
Aussen-T/F 251 30-05-2004 23:55:01 18 C 9.06 g/m*3 18 C 0 km/h
252 31-05-2004 00:07:01 18 C 9.06 g/m*3 18 C 0 km/h
253 31-05-2004 00:19:01 17.6 C 10.05 g/m*3 17.6 C 0 km/h
254 31-05-2004 00:31:01 17 C 9.98 g/m*3 17 C 0 km/h
255 31-05-2004 00:43:01 16.6 C 10.45 g/m*3 16.6 C 0 km/h
256 31-05-2004 00:55:01 16.2 C 10.76 g/m*3 16.2 C 0 km/h
257 31-05-2004 01:07:01 15.9 C 11.24 g/m*3 15.9 C 0 km/h
258 31-05-2004 01:19:01 15.4 C 10.9 g/m*3 15.4 C 0 km/h
259 31-05-2004 01:31:01 15.2 C 10.9 g/m*3 15.2 C 0 km/h
260 31-05-2004 01:43:01 15 C 10.9 g/m*3 15 C 0 km/h
261 31-05-2004 01:55:01 14.7 C 10.95 g/m*3 14.7 C 0 km/h
262 31-05-2004 02:07:01 14.7 C 11.08 g/m*3 14.7 C 0 km/h
263 31-05-2004 02:19:01 14.3 C 10.93 g/m*3 14.3 C 0 km/h
264 31-05-2004 02:31:01 14.1 C 10.92 g/m*3 14.1 C 0 km/h
265 31-05-2004 02:43:01 14.1 C 11.04 g/m*3 14.1 C 0 km/h
266 31-05-2004 02:56:02 13.7 C 10.78 g/m*3 13.7 C 0 km/h
267 31-05-2004 03:08:02 13.7 C 10.89 g/m*3 13.7 C 0 km/h
268 31-05-2004 03:20:02 13.9 C 11.15 g/m*3 13.9 C 0 km/h
269 31-05-2004 03:32:01 13.7 C 11.01 g/m*3 13.7 C 0 km/h
270 31-05-2004 03:44:01 13.7 C 11.01 g/m*3 13.7 C 0 km/h
271 31-05-2004 03:56:01 13.8 C 11.08 g/m*3 13.8 C 0 km/h
272 31-05-2004 04:08:01 13.8 C 11.2 g/m*3 13.8 C 0 km/h
273 31-05-2004 04:20:01 14.1 C 11.29 g/m*3 14.1 C 0 km/h
274 31-05-2004 04:32:01 13.7 C 11.13 g/m*3 13.7 C 0 km/h
275 31-05-2004 04:44:01 13.7 C 11.13 g/m*3 13.7 C 0 km/h
Sensor: Nr:Datum:Temp:Abs-Feuchte:Windchill:Wind:
Aussen-T/F 276 31-05-2004 04:56:01 13.7 C 11.13 g/m*3 13.7 C 0 km/h
277 31-05-2004 05:08:01 13.8 C 11.2 g/m*3 13.8 C 0 km/h
278 31-05-2004 05:20:01 13.8 C 11.2 g/m*3 13.8 C 0 km/h
279 31-05-2004 05:32:01 13.8 C 11.2 g/m*3 13.8 C 0 km/h
280 31-05-2004 05:44:01 13.8 C 11.2 g/m*3 13.8 C 0 km/h
281 31-05-2004 05:56:01 13.6 C 11.06 g/m*3 13.6 C 0 km/h
282 31-05-2004 06:08:01 13 C 10.66 g/m*3 13 C 0 km/h
283 31-05-2004 06:20:01 12.7 C 10.35 g/m*3 12.7 C 0 km/h
284 31-05-2004 06:32:01 12.6 C 10.29 g/m*3 12.6 C 0 km/h
285 31-05-2004 06:44:01 12.5 C 10.22 g/m*3 12.5 C 0 km/h
286 31-05-2004 06:56:01 12 C 9.91 g/m*3 12 C 0 km/h
287 31-05-2004 07:08:01 12.2 C 10.14 g/m*3 12.2 C 0 km/h
288 31-05-2004 07:20:01 12.1 C 10.08 g/m*3 12.1 C 0 km/h
289 31-05-2004 07:32:01 12.2 C 10.14 g/m*3 12.2 C 0 km/h
290 31-05-2004 07:44:01 12.2 C 10.14 g/m*3 12.2 C 0 km/h
291 31-05-2004 07:56:01 12.2 C 10.14 g/m*3 12.2 C 0 km/h
292 31-05-2004 08:08:01 12.6 C 10.4 g/m*3 12.6 C 0 km/h
293 31-05-2004 08:20:01 13 C 10.66 g/m*3 13 C 0 km/h
294 31-05-2004 08:32:01 13.5 C 10.88 g/m*3 13.5 C 0 km/h
295 31-05-2004 08:44:01 13.7 C 10.78 g/m*3 13.7 C 0 km/h
296 31-05-2004 08:56:01 14.1 C 10.68 g/m*3 14.1 C 0 km/h
297 31-05-2004 09:08:01 14.3 C 10.44 g/m*3 14.3 C 0 km/h
298 31-05-2004 09:20:01 14.8 C 10.51 g/m*3 14.8 C 0 km/h
299 31-05-2004 09:32:01 15.4 C 10.12 g/m*3 15.4 C 0 km/h
300 31-05-2004 09:44:01 15.9 C 10.43 g/m*3 15.9 C 0 km/h
Sensor: Nr:Datum:Temp:Abs-Feuchte:Windchill:Wind:
Aussen-T/F 301 31-05-2004 09:56:01 16.2 C 10.2 g/m*3 16.2 C 0 km/h
302 31-05-2004 10:08:01 15.6 C 10.37 g/m*3 15.6 C 0 km/h
303 31-05-2004 10:20:01 16.4 C 10.75 g/m*3 16.4 C 0 km/h
304 31-05-2004 10:32:01 16.9 C 10.36 g/m*3 16.9 C 0 km/h
305 31-05-2004 10:44:01 16.9 C 10.36 g/m*3 16.9 C 0 km/h
306 31-05-2004 10:56:02 16.9 C 10.36 g/m*3 16.9 C 0 km/h
307 31-05-2004 11:08:01 16.9 C 10.36 g/m*3 16.9 C 0 km/h
308 31-05-2004 11:20:01 16.9 C 10.36 g/m*3 16.9 C 0 km/h
309 31-05-2004 11:32:00 16.9 C 10.36 g/m*3 16.9 C 0 km/h
310 31-05-2004 11:44:00 16.9 C 10.36 g/m*3 16.9 C 0 km/h
311 31-05-2004 11:56:02 16.9 C 10.36 g/m*3 16.9 C 0 km/h
312 31-05-2004 12:08:02 16.2 C 10.62 g/m*3 16.2 C 0 km/h
313 31-05-2004 12:20:02 17.5 C 12.08 g/m*3 17.5 C 0 km/h
314 31-05-2004 12:32:02 18.8 C 12.24 g/m*3 18.8 C 0 km/h
315 31-05-2004 12:44:02 19.5 C 10.91 g/m*3 19.5 C 0 km/h
316 31-05-2004 12:56:02 15.6 C 9.71 g/m*3 15.6 C 0 km/h
317 31-05-2004 13:08:02 16.6 C 11.02 g/m*3 16.6 C 0 km/h
318 31-05-2004 13:20:02 16.7 C 10.37 g/m*3 16.7 C 0 km/h
319 31-05-2004 13:32:02 15.1 C 10.06 g/m*3 15.1 C 0 km/h
320 31-05-2004 13:44:02 14.9 C 10.71 g/m*3 14.9 C 0 km/h
321 31-05-2004 13:56:01 14.6 C 10.39 g/m*3 14.6 C 0 km/h
322 31-05-2004 14:08:01 15 C 10.51 g/m*3 15 C 0 km/h
323 31-05-2004 14:20:01 16.3 C 10.82 g/m*3 16.3 C 0 km/h
324 31-05-2004 14:32:01 16.2 C 10.2 g/m*3 16.2 C 0 km/h
325 31-05-2004 14:44:01 16.5 C 10.95 g/m*3 16.5 C 0 km/h
Sensor: Nr:Datum:Temp:Abs-Feuchte:Windchill:Wind:
Aussen-T/F 326 31-05-2004 14:56:01 17.5 C 10.88 g/m*3 17.5 C 0 km/h
327 31-05-2004 15:08:01 17.5 C 10.88 g/m*3 17.5 C 0 km/h
328 31-05-2004 15:20:01 17.5 C 10.88 g/m*3 17.5 C 0 km/h
329 31-05-2004 15:32:01 17.5 C 10.88 g/m*3 17.5 C 0 km/h
330 31-05-2004 15:44:01 17.5 C 10.88 g/m*3 17.5 C 0 km/h
331 31-05-2004 15:56:01 17.5 C 10.88 g/m*3 17.5 C 0 km/h
332 31-05-2004 16:08:01 17.5 C 10.88 g/m*3 17.5 C 0 km/h
333 31-05-2004 16:20:01 17.5 C 10.88 g/m*3 17.5 C 0 km/h
334 31-05-2004 16:32:01 19.1 C 11.15 g/m*3 19.1 C 0 km/h
335 31-05-2004 16:44:01 19.9 C 8.08 g/m*3 19.9 C 0 km/h
336 31-05-2004 16:56:01 21.3 C 8.39 g/m*3 21.3 C 0 km/h
337 31-05-2004 17:08:01 21.5 C 7.17 g/m*3 21.5 C 0 km/h
338 31-05-2004 17:20:01 21.5 C 7.17 g/m*3 21.5 C 0 km/h
339 31-05-2004 17:32:01 20.8 C 8.33 g/m*3 20.8 C 0 km/h
340 31-05-2004 17:44:01 22.6 C 6.43 g/m*3 22.6 C 0 km/h
341 31-05-2004 17:56:01 24.4 C 6.9 g/m*3 24.4 C 0 km/h
342 31-05-2004 18:08:01 24.3 C 8.63 g/m*3 24.3 C 0 km/h
343 31-05-2004 18:20:01 24.4 C 8.68 g/m*3 24.4 C 0 km/h
344 31-05-2004 18:32:01 23.5 C 6.77 g/m*3 23.5 C 0 km/h
345 31-05-2004 18:44:01 23.1 C 7.23 g/m*3 23.1 C 0 km/h
346 31-05-2004 18:56:01 21.7 C 9.16 g/m*3 21.7 C 0 km/h
347 31-05-2004 19:08:01 20.1 C 8.87 g/m*3 20.1 C 0 km/h
348 31-05-2004 19:20:01 19.2 C 8.9 g/m*3 19.2 C 0 km/h
349 31-05-2004 19:32:01 18.3 C 9.07 g/m*3 18.3 C 0 km/h
350 31-05-2004 19:44:01 17.6 C 9 g/m*3 17.6 C 0 km/h
Sensor: Nr:Datum:Temp:Abs-Feuchte:Windchill:Wind:
Aussen-T/F 351 31-05-2004 19:56:01 17.1 C 8.88 g/m*3 17.1 C 0 km/h
352 31-05-2004 20:08:01 17 C 8.97 g/m*3 17 C 0 km/h
353 31-05-2004 20:20:01 15.6 C 9.84 g/m*3 15.6 C 0 km/h
354 31-05-2004 20:32:01 14.4 C 10.26 g/m*3 14.4 C 0 km/h
355 31-05-2004 20:44:01 14.2 C 10.5 g/m*3 14.2 C 0 km/h
356 31-05-2004 20:56:01 14 C 10.49 g/m*3 14 C 0 km/h
357 31-05-2004 21:08:01 11.8 C 9.16 g/m*3 11.8 C 0 km/h
358 31-05-2004 21:20:01 11.8 C 9.26 g/m*3 11.8 C 0 km/h
359 31-05-2004 21:32:01 11.7 C 9.41 g/m*3 11.7 C 0 km/h
360 31-05-2004 21:44:01 11.6 C 9.46 g/m*3 11.6 C 0 km/h
361 31-05-2004 21:56:01 11.5 C 9.5 g/m*3 11.5 C 0 km/h
362 31-05-2004 22:08:01 11.5 C 9.5 g/m*3 11.5 C 0 km/h
363 31-05-2004 22:20:01 11.4 C 9.44 g/m*3 11.4 C 0 km/h
364 31-05-2004 22:32:01 11.4 C 9.44 g/m*3 11.4 C 0 km/h
365 31-05-2004 22:44:01 11.2 C 9.33 g/m*3 11.2 C 0 km/h
366 31-05-2004 22:56:01 11.2 C 9.33 g/m*3 11.2 C 0 km/h
367 31-05-2004 23:08:01 11.3 C 9.49 g/m*3 11.3 C 0 km/h
368 31-05-2004 23:20:01 11.3 C 9.49 g/m*3 11.3 C 0 km/h
369 31-05-2004 23:32:01 11.2 C 9.43 g/m*3 11.2 C 0 km/h
370 31-05-2004 23:44:01 11.1 C 9.37 g/m*3 11.1 C 0 km/h
371 31-05-2004 23:56:01 11.2 C 9.43 g/m*3 11.2 C 0 km/h
372 01-06-2004 00:08:01 11.2 C 9.43 g/m*3 11.2 C 0 km/h
373 01-06-2004 00:20:01 11.2 C 9.43 g/m*3 11.2 C 0 km/h
374 01-06-2004 00:32:01 11.2 C 9.43 g/m*3 11.2 C 0 km/h
375 01-06-2004 00:44:01 11 C 9.31 g/m*3 11 C 0 km/h
Sensor: Nr:Datum:Temp:Abs-Feuchte:Windchill:Wind:
Aussen-T/F 376 01-06-2004 00:56:01 11 C 9.31 g/m*3 11 C 0 km/h
377 01-06-2004 01:08:01 10.9 C 9.25 g/m*3 10.9 C 0 km/h
378 01-06-2004 01:20:01 10.8 C 9.19 g/m*3 10.8 C 0 km/h
379 01-06-2004 01:32:01 10.8 C 9.19 g/m*3 10.8 C 0 km/h
380 01-06-2004 01:44:01 11 C 9.31 g/m*3 11 C 0 km/h
381 01-06-2004 01:56:01 10.8 C 9.19 g/m*3 10.8 C 0 km/h
382 01-06-2004 02:08:01 10.8 C 9.19 g/m*3 10.8 C 0 km/h
383 01-06-2004 02:20:01 11.1 C 9.27 g/m*3 11.1 C 0 km/h
384 01-06-2004 02:32:01 11.1 C 9.27 g/m*3 11.1 C 0 km/h
385 01-06-2004 02:44:01 10.9 C 9.25 g/m*3 10.9 C 0 km/h
386 01-06-2004 02:57:02 10.9 C 9.25 g/m*3 10.9 C 0 km/h
387 01-06-2004 03:09:02 10.8 C 9.09 g/m*3 10.8 C 0 km/h
388 01-06-2004 03:21:02 10.8 C 9.09 g/m*3 10.8 C 0 km/h
389 01-06-2004 03:33:01 10.8 C 9.09 g/m*3 10.8 C 0 km/h
390 01-06-2004 03:45:01 10.8 C 9.09 g/m*3 10.8 C 0 km/h
391 01-06-2004 03:57:01 10.8 C 9.09 g/m*3 10.8 C 0 km/h
392 01-06-2004 04:09:01 10.8 C 9.09 g/m*3 10.8 C 0 km/h
393 01-06-2004 04:21:01 10.8 C 9.09 g/m*3 10.8 C 0 km/h
394 01-06-2004 04:33:01 10.6 C 8.98 g/m*3 10.6 C 0 km/h
395 01-06-2004 04:45:01 10.5 C 8.92 g/m*3 10.5 C 0 km/h
396 01-06-2004 04:57:01 10.5 C 8.92 g/m*3 10.5 C 0 km/h
397 01-06-2004 05:09:01 10.5 C 8.92 g/m*3 10.5 C 0 km/h
398 01-06-2004 05:21:01 10.5 C 8.92 g/m*3 10.5 C 0 km/h
399 01-06-2004 05:33:01 9.8 C 8.63 g/m*3 9.8 C 0 km/h
400 01-06-2004 05:45:01 9.8 C 8.63 g/m*3 9.8 C 0 km/h
Sensor: Nr:Datum:Temp:Abs-Feuchte:Windchill:Wind:
Aussen-T/F 401 01-06-2004 05:57:01 9.8 C 8.63 g/m*3 9.8 C 0 km/h
402 01-06-2004 06:09:02 9.7 C 8.57 g/m*3 9.7 C 0 km/h
403 01-06-2004 06:21:01 9.8 C 8.72 g/m*3 9.8 C 0 km/h
404 01-06-2004 06:33:02 9.9 C 8.78 g/m*3 9.9 C 0 km/h
405 01-06-2004 06:45:01 10.1 C 8.79 g/m*3 10.1 C 0 km/h
406 01-06-2004 06:57:01 10.2 C 8.85 g/m*3 10.2 C 0 km/h
407 01-06-2004 07:09:02 10.6 C 9.08 g/m*3 10.6 C 0 km/h
408 01-06-2004 07:21:01 11.1 C 9.27 g/m*3 11.1 C 0 km/h
409 01-06-2004 07:33:02 11.1 C 9.27 g/m*3 11.1 C 0 km/h
410 01-06-2004 07:45:02 11.3 C 9.28 g/m*3 11.3 C 0 km/h
411 01-06-2004 07:57:02 11.9 C 9.43 g/m*3 11.9 C 0 km/h
412 01-06-2004 08:09:02 12.1 C 9.12 g/m*3 12.1 C 0 km/h
413 01-06-2004 08:21:02 11.9 C 9 g/m*3 11.9 C 0 km/h
414 01-06-2004 08:33:02 12 C 9.06 g/m*3 12 C 0 km/h
415 01-06-2004 08:45:02 12.4 C 9.29 g/m*3 12.4 C 0 km/h
416 01-06-2004 08:57:02 12.5 C 9.24 g/m*3 12.5 C 0 km/h
417 01-06-2004 09:09:02 12.8 C 9.52 g/m*3 12.8 C 0 km/h
418 01-06-2004 09:21:02 13.2 C 9.53 g/m*3 13.2 C 0 km/h
419 01-06-2004 09:33:01 13.8 C 9.77 g/m*3 13.8 C 0 km/h
420 01-06-2004 09:45:01 13.8 C 9.77 g/m*3 13.8 C 0 km/h
421 01-06-2004 09:57:01 13.8 C 9.77 g/m*3 13.8 C 0 km/h
422 01-06-2004 10:09:01 13.8 C 9.77 g/m*3 13.8 C 0 km/h
423 01-06-2004 10:21:01 13.8 C 9.77 g/m*3 13.8 C 0 km/h
424 01-06-2004 10:33:01 16.5 C 9.97 g/m*3 16.5 C 0 km/h
425 01-06-2004 10:45:01 16.5 C 9.97 g/m*3 16.5 C 0 km/h
Sensor: Nr:Datum:Temp:Abs-Feuchte:Windchill:Wind:
Aussen-T/F 426 01-06-2004 10:57:01 18.3 C 10.94 g/m*3 18.3 C 0 km/h
427 01-06-2004 11:09:01 18.4 C 9.91 g/m*3 18.4 C 0 km/h
428 01-06-2004 11:21:01 18.1 C 10.51 g/m*3 18.1 C 0 km/h
429 01-06-2004 11:33:01 18.4 C 10.22 g/m*3 18.4 C 0 km/h
430 01-06-2004 11:45:01 19.7 C 9 g/m*3 19.7 C 0 km/h
431 01-06-2004 11:57:01 20.4 C 8.14 g/m*3 20.4 C 0 km/h
432 01-06-2004 12:09:01 21.1 C 7.55 g/m*3 21.1 C 0 km/h
433 01-06-2004 12:21:01 21.1 C 7.55 g/m*3 21.1 C 0 km/h
434 01-06-2004 12:33:01 21 C 8.61 g/m*3 21 C 0 km/h
435 01-06-2004 12:45:01 21.1 C 9.4 g/m*3 21.1 C 0 km/h
436 01-06-2004 12:57:01 22.8 C 9.14 g/m*3 22.8 C 0 km/h
437 01-06-2004 13:09:01 22.8 C 9.14 g/m*3 22.8 C 0 km/h
438 01-06-2004 13:21:01 25.5 C 7.34 g/m*3 25.5 C 0 km/h
439 01-06-2004 13:33:01 22 C 6.99 g/m*3 22 C 0 km/h
440 01-06-2004 13:45:01 22 C 6.99 g/m*3 22 C 0 km/h
441 01-06-2004 13:57:01 22 C 6.99 g/m*3 22 C 0 km/h
442 01-06-2004 14:09:01 24.5 C 6.71 g/m*3 24.5 C 0 km/h
443 01-06-2004 14:21:01 24.5 C 6.71 g/m*3 24.5 C 0 km/h
444 01-06-2004 14:33:01 25 C 7.14 g/m*3 25 C 0 km/h
445 01-06-2004 14:47:01 25 C 7.14 g/m*3 25 C 0 km/h
446 01-06-2004 14:59:01 25 C 7.14 g/m*3 25 C 0 km/h
447 01-06-2004 15:11:01 25 C 7.14 g/m*3 25 C 0 km/h
448 01-06-2004 15:23:01 25 C 7.14 g/m*3 25 C 0 km/h
449 01-06-2004 15:35:01 25 C 7.14 g/m*3 25 C 0 km/h
450 01-06-2004 15:59:01 23.6 C 6.59 g/m*3 23.6 C 0 km/h
Sensor: Nr:Datum:Temp:Abs-Feuchte:Windchill:Wind:
Aussen-T/F 451 01-06-2004 16:11:01 23.6 C 6.59 g/m*3 23.6 C 0 km/h
452 01-06-2004 16:23:01 23.6 C 6.59 g/m*3 23.6 C 0 km/h
453 01-06-2004 16:35:01 23.6 C 6.59 g/m*3 23.6 C 0 km/h
454 01-06-2004 16:47:01 23.6 C 6.59 g/m*3 23.6 C 0 km/h
455 01-06-2004 16:59:01 23.6 C 6.59 g/m*3 23.6 C 0 km/h
456 01-06-2004 17:11:01 23.6 C 6.59 g/m*3 23.6 C 0 km/h
457 01-06-2004 17:23:01 23.6 C 6.59 g/m*3 23.6 C 0 km/h
458 01-06-2004 17:35:00 23.6 C 6.59 g/m*3 23.6 C 0 km/h
459 01-06-2004 17:47:01 23.6 C 6.59 g/m*3 23.6 C 0 km/h
460 01-06-2004 17:59:01 23.4 C 7.57 g/m*3 23.4 C 0 km/h
461 01-06-2004 18:11:01 23.4 C 7.57 g/m*3 23.4 C 0 km/h
462 01-06-2004 18:23:01 21.1 C 9.58 g/m*3 21.1 C 0 km/h
463 01-06-2004 18:35:01 21.1 C 9.58 g/m*3 21.1 C 0 km/h
464 01-06-2004 18:47:01 21.1 C 9.58 g/m*3 21.1 C 0 km/h
465 01-06-2004 18:59:01 21.1 C 9.58 g/m*3 21.1 C 0 km/h
466 01-06-2004 19:11:01 21.1 C 9.58 g/m*3 21.1 C 0 km/h
467 01-06-2004 19:23:01 21.1 C 9.58 g/m*3 21.1 C 0 km/h
468 01-06-2004 19:35:01 21.1 C 9.58 g/m*3 21.1 C 0 km/h
469 01-06-2004 19:47:01 21.1 C 9.58 g/m*3 21.1 C 0 km/h
470 01-06-2004 19:59:01 21.1 C 9.58 g/m*3 21.1 C 0 km/h
471 01-06-2004 20:11:01 21.1 C 9.58 g/m*3 21.1 C 0 km/h
472 01-06-2004 20:23:02 21.1 C 9.58 g/m*3 21.1 C 0 km/h
473 01-06-2004 20:35:02 20 C 9.33 g/m*3 20 C 0 km/h
474 01-06-2004 20:47:02 19 C 8.96 g/m*3 19 C 0 km/h
475 01-06-2004 20:59:02 18.4 C 9.28 g/m*3 18.4 C 0 km/h
Sensor: Nr:Datum:Temp:Abs-Feuchte:Windchill:Wind:
Aussen-T/F 476 01-06-2004 21:11:01 17.7 C 8.9 g/m*3 17.7 C 0 km/h
477 01-06-2004 21:23:01 16.9 C 8.77 g/m*3 16.9 C 0 km/h
478 01-06-2004 21:35:01 16.4 C 8.65 g/m*3 16.4 C 0 km/h
479 01-06-2004 21:47:01 16 C 8.58 g/m*3 16 C 0 km/h
480 01-06-2004 21:59:01 15.6 C 8.91 g/m*3 15.6 C 0 km/h
481 01-06-2004 22:11:01 15.6 C 8.91 g/m*3 15.6 C 0 km/h
482 01-06-2004 22:23:01 15.5 C 8.99 g/m*3 15.5 C 0 km/h
483 01-06-2004 22:35:01 15.2 C 9.09 g/m*3 15.2 C 0 km/h
484 01-06-2004 22:47:01 15 C 9.1 g/m*3 15 C 0 km/h
485 01-06-2004 22:59:01 14.7 C 9.07 g/m*3 14.7 C 0 km/h
486 01-06-2004 23:11:01 14.4 C 9.02 g/m*3 14.4 C 0 km/h
487 01-06-2004 23:23:01 14.3 C 8.97 g/m*3 14.3 C 0 km/h
488 01-06-2004 23:35:01 14.1 C 8.74 g/m*3 14.1 C 0 km/h
489 01-06-2004 23:47:02 13.8 C 8.7 g/m*3 13.8 C 0 km/h
490 01-06-2004 23:59:02 13.7 C 8.76 g/m*3 13.7 C 0 km/h
491 02-06-2004 00:11:02 13.4 C 8.72 g/m*3 13.4 C 0 km/h
492 02-06-2004 00:23:02 13.2 C 8.73 g/m*3 13.2 C 0 km/h
493 02-06-2004 00:35:01 13 C 8.73 g/m*3 13 C 0 km/h
494 02-06-2004 00:47:02 12.8 C 8.85 g/m*3 12.8 C 0 km/h
495 02-06-2004 00:59:02 12.6 C 8.74 g/m*3 12.6 C 0 km/h
496 02-06-2004 01:11:02 12.4 C 8.63 g/m*3 12.4 C 0 km/h
497 02-06-2004 01:23:02 12.2 C 8.52 g/m*3 12.2 C 0 km/h
498 02-06-2004 01:35:02 12.2 C 8.52 g/m*3 12.2 C 0 km/h
499 02-06-2004 01:47:02 12.3 C 8.58 g/m*3 12.3 C 0 km/h
500 02-06-2004 01:59:02 12.2 C 8.74 g/m*3 12.2 C 0 km/h
Sensor: Nr:Datum:Temp:Abs-Feuchte:Windchill:Wind:
Aussen-T/F 501 02-06-2004 02:11:02 12.2 C 8.74 g/m*3 12.2 C 0 km/h
502 02-06-2004 02:23:02 12 C 8.63 g/m*3 12 C 0 km/h
503 02-06-2004 02:35:02 11.8 C 8.63 g/m*3 11.8 C 0 km/h
504 02-06-2004 02:48:02 11.7 C 8.68 g/m*3 11.7 C 0 km/h
505 02-06-2004 03:00:02 11.4 C 8.52 g/m*3 11.4 C 0 km/h
506 02-06-2004 03:12:02 11.3 C 8.47 g/m*3 11.3 C 0 km/h
507 02-06-2004 03:24:02 11.1 C 8.46 g/m*3 11.1 C 0 km/h
508 02-06-2004 03:36:01 10.9 C 8.45 g/m*3 10.9 C 0 km/h
509 02-06-2004 03:48:01 10.8 C 8.4 g/m*3 10.8 C 0 km/h
510 02-06-2004 04:00:01 10.7 C 8.45 g/m*3 10.7 C 0 km/h
511 02-06-2004 04:12:01 10.7 C 8.45 g/m*3 10.7 C 0 km/h
512 02-06-2004 04:24:01 10.6 C 8.39 g/m*3 10.6 C 0 km/h
513 02-06-2004 04:36:01 10.4 C 8.29 g/m*3 10.4 C 0 km/h
514 02-06-2004 04:48:01 10.3 C 8.24 g/m*3 10.3 C 0 km/h
515 02-06-2004 05:00:01 10.2 C 8.28 g/m*3 10.2 C 0 km/h
516 02-06-2004 05:12:01 10.1 C 8.13 g/m*3 10.1 C 0 km/h
517 02-06-2004 05:24:00 10 C 8.08 g/m*3 10 C 0 km/h
518 02-06-2004 05:36:00 9.9 C 8.22 g/m*3 9.9 C 0 km/h
519 02-06-2004 05:48:01 9.8 C 8.26 g/m*3 9.8 C 0 km/h
520 02-06-2004 06:00:01 9.8 C 8.35 g/m*3 9.8 C 0 km/h
521 02-06-2004 06:12:01 9.9 C 8.4 g/m*3 9.9 C 0 km/h
522 02-06-2004 06:24:01 9.9 C 8.4 g/m*3 9.9 C 0 km/h
523 02-06-2004 06:36:00 10 C 8.36 g/m*3 10 C 0 km/h
524 02-06-2004 06:48:01 10.1 C 8.42 g/m*3 10.1 C 0 km/h
525 02-06-2004 07:00:01 10.3 C 8.52 g/m*3 10.3 C 0 km/h
Sensor: Nr:Datum:Temp:Abs-Feuchte:Windchill:Wind:
Aussen-T/F 526 02-06-2004 07:12:01 10.6 C 8.59 g/m*3 10.6 C 0 km/h
527 02-06-2004 07:24:01 10.8 C 8.6 g/m*3 10.8 C 0 km/h
528 02-06-2004 07:36:01 11.1 C 8.56 g/m*3 11.1 C 0 km/h
529 02-06-2004 07:48:01 11 C 8.41 g/m*3 11 C 0 km/h
530 02-06-2004 08:00:01 11.2 C 8.62 g/m*3 11.2 C 0 km/h
531 02-06-2004 08:12:01 11.6 C 8.73 g/m*3 11.6 C 0 km/h
532 02-06-2004 08:24:01 11.9 C 8.9 g/m*3 11.9 C 0 km/h
533 02-06-2004 08:36:00 12.4 C 8.96 g/m*3 12.4 C 0 km/h
534 02-06-2004 08:48:01 13.1 C 9.13 g/m*3 13.1 C 0 km/h
535 02-06-2004 09:00:01 13.5 C 9.12 g/m*3 13.5 C 0 km/h
536 02-06-2004 09:12:01 14 C 9.29 g/m*3 14 C 0 km/h
537 02-06-2004 09:24:01 14.6 C 9.26 g/m*3 14.6 C 0 km/h
538 02-06-2004 09:36:01 15.4 C 9.2 g/m*3 15.4 C 0 km/h
539 02-06-2004 09:48:01 16.1 C 9.46 g/m*3 16.1 C 0 km/h
540 02-06-2004 10:00:01 16.8 C 9.58 g/m*3 16.8 C 0 km/h
541 02-06-2004 10:12:01 17.5 C 9.54 g/m*3 17.5 C 0 km/h
542 02-06-2004 10:24:01 18 C 9.37 g/m*3 18 C 0 km/h
543 02-06-2004 10:36:01 18.8 C 9.66 g/m*3 18.8 C 0 km/h
544 02-06-2004 10:48:01 19.3 C 9.45 g/m*3 19.3 C 0 km/h
545 02-06-2004 11:00:01 19.7 C 9.34 g/m*3 19.7 C 0 km/h
546 02-06-2004 11:12:01 20.6 C 10.02 g/m*3 20.6 C 0 km/h
547 02-06-2004 11:24:01 21 C 9.16 g/m*3 21 C 0 km/h
548 02-06-2004 11:36:01 21.4 C 8.81 g/m*3 21.4 C 0 km/h
549 02-06-2004 11:48:01 21.9 C 8.68 g/m*3 21.9 C 0 km/h
550 02-06-2004 12:00:01 22.6 C 8.04 g/m*3 22.6 C 0 km/h
Sensor: Nr:Datum:Temp:Abs-Feuchte:Windchill:Wind:
Aussen-T/F 551 02-06-2004 12:12:01 22.4 C 7.55 g/m*3 22.4 C 0 km/h
552 02-06-2004 12:24:01 21.3 C 7.83 g/m*3 21.3 C 0 km/h
553 02-06-2004 12:36:01 21.1 C 7.92 g/m*3 21.1 C 0 km/h
554 02-06-2004 12:48:01 21.3 C 8.39 g/m*3 21.3 C 0 km/h
555 02-06-2004 13:00:01 21.6 C 8.53 g/m*3 21.6 C 0 km/h
556 02-06-2004 13:12:01 24.4 C 8.23 g/m*3 24.4 C 0 km/h
557 02-06-2004 13:24:01 23.4 C 8.2 g/m*3 23.4 C 0 km/h
558 02-06-2004 13:36:02 22.1 C 7.81 g/m*3 22.1 C 0 km/h
559 02-06-2004 13:48:01 20.6 C 8.41 g/m*3 20.6 C 0 km/h
560 02-06-2004 14:00:01 20.6 C 8.77 g/m*3 20.6 C 0 km/h
561 02-06-2004 14:12:02 22 C 8.73 g/m*3 22 C 0 km/h
562 02-06-2004 14:24:01 18.7 C 11.53 g/m*3 18.7 C 0 km/h
563 02-06-2004 14:36:02 16.1 C 11.24 g/m*3 16.1 C 0 km/h
564 02-06-2004 14:48:01 15.4 C 11.43 g/m*3 15.4 C 0 km/h
565 02-06-2004 15:00:01 15.3 C 11.62 g/m*3 15.3 C 0 km/h
566 02-06-2004 15:12:02 15.9 C 12.19 g/m*3 15.9 C 0 km/h
567 02-06-2004 15:24:02 16.3 C 12.35 g/m*3 16.3 C 0 km/h
568 02-06-2004 15:36:02 16.8 C 12.58 g/m*3 16.8 C 0 km/h
569 02-06-2004 15:48:02 17.6 C 12.75 g/m*3 17.6 C 0 km/h
570 02-06-2004 16:00:02 20.3 C 13.72 g/m*3 20.3 C 0 km/h
571 02-06-2004 16:12:02 20.4 C 12.91 g/m*3 20.4 C 0 km/h
572 02-06-2004 16:24:02 19.3 C 12.77 g/m*3 19.3 C 0 km/h
573 02-06-2004 16:36:02 17.7 C 9.66 g/m*3 17.7 C 0 km/h
574 02-06-2004 16:48:02 15.8 C 10.5 g/m*3 15.8 C 0 km/h
575 02-06-2004 17:00:02 15.5 C 10.57 g/m*3 15.5 C 0 km/h
Sensor: Nr:Datum:Temp:Abs-Feuchte:Windchill:Wind:
Aussen-T/F 576 02-06-2004 17:12:02 15.7 C 11.37 g/m*3 15.7 C 0 km/h
577 02-06-2004 17:24:02 16.1 C 11.93 g/m*3 16.1 C 0 km/h
578 02-06-2004 17:36:02 16.3 C 12.21 g/m*3 16.3 C 0 km/h
579 02-06-2004 17:48:01 16.5 C 12.22 g/m*3 16.5 C 0 km/h
580 02-06-2004 18:00:01 16.6 C 12.01 g/m*3 16.6 C 0 km/h
581 02-06-2004 18:12:01 16.9 C 11.94 g/m*3 16.9 C 0 km/h
582 02-06-2004 18:24:01 16.9 C 11.94 g/m*3 16.9 C 0 km/h
583 02-06-2004 18:36:01 16.5 C 11.09 g/m*3 16.5 C 0 km/h
584 02-06-2004 18:48:01 16.2 C 10.76 g/m*3 16.2 C 0 km/h
585 02-06-2004 19:00:01 16.3 C 10.82 g/m*3 16.3 C 0 km/h
586 02-06-2004 19:12:01 16.3 C 10.96 g/m*3 16.3 C 0 km/h
587 02-06-2004 19:24:01 16.3 C 10.96 g/m*3 16.3 C 0 km/h
588 02-06-2004 19:36:01 15.7 C 10.57 g/m*3 15.7 C 0 km/h
589 02-06-2004 19:48:01 15.2 C 10.51 g/m*3 15.2 C 0 km/h
590 02-06-2004 20:00:01 15.1 C 10.32 g/m*3 15.1 C 0 km/h
591 02-06-2004 20:12:01 15 C 10.51 g/m*3 15 C 0 km/h
592 02-06-2004 20:24:01 14.8 C 10.64 g/m*3 14.8 C 0 km/h
593 02-06-2004 20:36:01 14.2 C 10.62 g/m*3 14.2 C 0 km/h
594 02-06-2004 20:48:01 14.1 C 10.8 g/m*3 14.1 C 0 km/h
595 02-06-2004 21:00:01 14 C 10.86 g/m*3 14 C 0 km/h
596 02-06-2004 21:12:01 13.6 C 10.71 g/m*3 13.6 C 0 km/h
597 02-06-2004 21:24:01 13.3 C 10.4 g/m*3 13.3 C 0 km/h
598 02-06-2004 21:36:01 13.4 C 10.69 g/m*3 13.4 C 0 km/h
599 02-06-2004 21:48:01 13.4 C 10.69 g/m*3 13.4 C 0 km/h
600 02-06-2004 22:00:01 13.5 C 10.88 g/m*3 13.5 C 0 km/h
Sensor: Nr:Datum:Temp:Abs-Feuchte:Windchill:Wind:
Aussen-T/F 601 02-06-2004 22:12:01 13.4 C 10.81 g/m*3 13.4 C 0 km/h
602 02-06-2004 22:24:01 13.2 C 10.68 g/m*3 13.2 C 0 km/h
603 02-06-2004 22:36:01 13.2 C 10.68 g/m*3 13.2 C 0 km/h
604 02-06-2004 22:48:01 13 C 10.55 g/m*3 13 C 0 km/h
605 02-06-2004 23:00:01 12.9 C 10.48 g/m*3 12.9 C 0 km/h
606 02-06-2004 23:12:01 13 C 10.43 g/m*3 13 C 0 km/h
607 02-06-2004 23:24:01 13 C 10.32 g/m*3 13 C 0 km/h
608 02-06-2004 23:36:01 13.1 C 10.38 g/m*3 13.1 C 0 km/h
609 02-06-2004 23:48:01 13 C 10.32 g/m*3 13 C 0 km/h
610 03-06-2004 00:00:01 12.9 C 10.37 g/m*3 12.9 C 0 km/h
611 03-06-2004 00:12:01 12.8 C 10.3 g/m*3 12.8 C 0 km/h
612 03-06-2004 00:24:01 12.7 C 10.35 g/m*3 12.7 C 0 km/h
613 03-06-2004 00:36:00 12.7 C 10.35 g/m*3 12.7 C 0 km/h
614 03-06-2004 00:48:01 12.6 C 10.29 g/m*3 12.6 C 0 km/h
615 03-06-2004 01:00:01 12.8 C 10.53 g/m*3 12.8 C 0 km/h
616 03-06-2004 01:12:01 12.7 C 10.46 g/m*3 12.7 C 0 km/h
617 03-06-2004 01:24:02 12.8 C 10.53 g/m*3 12.8 C 0 km/h
618 03-06-2004 01:36:02 12.8 C 10.53 g/m*3 12.8 C 0 km/h
619 03-06-2004 01:48:02 13 C 10.55 g/m*3 13 C 0 km/h
620 03-06-2004 02:00:02 12.9 C 10.48 g/m*3 12.9 C 0 km/h
621 03-06-2004 02:12:02 12.9 C 10.48 g/m*3 12.9 C 0 km/h
622 03-06-2004 02:24:02 12.9 C 10.48 g/m*3 12.9 C 0 km/h
623 03-06-2004 02:36:02 12.8 C 10.3 g/m*3 12.8 C 0 km/h
624 03-06-2004 02:49:03 12.8 C 10.3 g/m*3 12.8 C 0 km/h
625 03-06-2004 03:01:03 12.8 C 10.3 g/m*3 12.8 C 0 km/h
Sensor: Nr:Datum:Temp:Abs-Feuchte:Windchill:Wind:
Aussen-T/F 626 03-06-2004 03:13:03 12.9 C 10.37 g/m*3 12.9 C 0 km/h
627 03-06-2004 03:25:03 12.9 C 10.48 g/m*3 12.9 C 0 km/h
628 03-06-2004 03:37:01 12.9 C 10.48 g/m*3 12.9 C 0 km/h
629 03-06-2004 03:49:01 12.9 C 10.48 g/m*3 12.9 C 0 km/h
630 03-06-2004 04:01:01 12.9 C 10.48 g/m*3 12.9 C 0 km/h
631 03-06-2004 04:13:01 12.9 C 10.37 g/m*3 12.9 C 0 km/h
632 03-06-2004 04:25:01 13 C 10.43 g/m*3 13 C 0 km/h
633 03-06-2004 04:37:01 13 C 10.43 g/m*3 13 C 0 km/h
634 03-06-2004 04:49:01 13 C 10.43 g/m*3 13 C 0 km/h
635 03-06-2004 05:01:01 13 C 10.43 g/m*3 13 C 0 km/h
636 03-06-2004 05:13:01 13 C 10.43 g/m*3 13 C 0 km/h
637 03-06-2004 05:25:01 13.2 C 10.56 g/m*3 13.2 C 0 km/h
638 03-06-2004 05:37:01 13.2 C 10.45 g/m*3 13.2 C 0 km/h
639 03-06-2004 05:49:01 13.2 C 10.33 g/m*3 13.2 C 0 km/h
640 03-06-2004 06:01:01 13.2 C 10.33 g/m*3 13.2 C 0 km/h
641 03-06-2004 06:13:01 13.2 C 10.33 g/m*3 13.2 C 0 km/h
642 03-06-2004 06:25:00 13.1 C 10.27 g/m*3 13.1 C 0 km/h
643 03-06-2004 06:37:00 13.1 C 10.27 g/m*3 13.1 C 0 km/h
644 03-06-2004 06:49:01 13.1 C 10.38 g/m*3 13.1 C 0 km/h
645 03-06-2004 07:01:02 13.2 C 10.45 g/m*3 13.2 C 0 km/h
646 03-06-2004 07:13:02 13.2 C 10.33 g/m*3 13.2 C 0 km/h
647 03-06-2004 07:25:01 13.3 C 10.4 g/m*3 13.3 C 0 km/h
648 03-06-2004 07:37:01 13.4 C 10.46 g/m*3 13.4 C 0 km/h
649 03-06-2004 07:49:01 13.4 C 10.35 g/m*3 13.4 C 0 km/h
650 03-06-2004 08:01:01 13.6 C 10.36 g/m*3 13.6 C 0 km/h
Sensor: Nr:Datum:Temp:Abs-Feuchte:Windchill:Wind:
Aussen-T/F 651 03-06-2004 08:13:01 13.7 C 10.3 g/m*3 13.7 C 0 km/h
652 03-06-2004 08:25:01 13.6 C 10.24 g/m*3 13.6 C 0 km/h
653 03-06-2004 08:37:00 13.7 C 10.3 g/m*3 13.7 C 0 km/h
654 03-06-2004 08:49:01 13.9 C 10.19 g/m*3 13.9 C 0 km/h
655 03-06-2004 09:01:01 14.2 C 10.14 g/m*3 14.2 C 0 km/h
656 03-06-2004 09:13:01 14.7 C 10.32 g/m*3 14.7 C 0 km/h
657 03-06-2004 09:25:01 14.4 C 9.77 g/m*3 14.4 C 0 km/h
658 03-06-2004 09:37:01 14.6 C 10.01 g/m*3 14.6 C 0 km/h
659 03-06-2004 09:49:01 14.9 C 9.94 g/m*3 14.9 C 0 km/h
660 03-06-2004 10:01:01 14.9 C 10.07 g/m*3 14.9 C 0 km/h
661 03-06-2004 10:13:01 14.8 C 9.88 g/m*3 14.8 C 0 km/h
662 03-06-2004 10:25:01 15.4 C 9.85 g/m*3 15.4 C 0 km/h
663 03-06-2004 10:37:01 16 C 9.81 g/m*3 16 C 0 km/h
664 03-06-2004 10:49:01 15.7 C 9.77 g/m*3 15.7 C 0 km/h
665 03-06-2004 11:01:01 15.6 C 9.71 g/m*3 15.6 C 0 km/h
666 03-06-2004 11:13:01 15.6 C 9.71 g/m*3 15.6 C 0 km/h
667 03-06-2004 11:25:01 16 C 9.81 g/m*3 16 C 0 km/h
668 03-06-2004 11:37:01 16.3 C 9.71 g/m*3 16.3 C 0 km/h
669 03-06-2004 11:49:01 16.5 C 9.41 g/m*3 16.5 C 0 km/h
670 03-06-2004 12:01:01 16.1 C 9.32 g/m*3 16.1 C 0 km/h
671 03-06-2004 12:13:01 16 C 9.4 g/m*3 16 C 0 km/h
672 03-06-2004 12:25:01 16.2 C 9.38 g/m*3 16.2 C 0 km/h
673 03-06-2004 12:37:01 16.8 C 9.72 g/m*3 16.8 C 0 km/h
674 03-06-2004 12:49:01 17.3 C 9.72 g/m*3 17.3 C 0 km/h
675 03-06-2004 13:01:01 18.5 C 9.65 g/m*3 18.5 C 0 km/h
Sensor: Nr:Datum:Temp:Abs-Feuchte:Windchill:Wind:
Aussen-T/F 676 03-06-2004 13:13:01 18.5 C 9.18 g/m*3 18.5 C 0 km/h
677 03-06-2004 13:25:01 17.9 C 9.31 g/m*3 17.9 C 0 km/h
678 03-06-2004 13:37:01 18.7 C 9.45 g/m*3 18.7 C 0 km/h
679 03-06-2004 13:49:01 19 C 9.45 g/m*3 19 C 0 km/h
680 03-06-2004 14:01:02 18.8 C 9.66 g/m*3 18.8 C 0 km/h
681 03-06-2004 14:13:02 18.3 C 9.38 g/m*3 18.3 C 0 km/h
682 03-06-2004 14:25:01 18.1 C 9.27 g/m*3 18.1 C 0 km/h
683 03-06-2004 14:37:02 18.7 C 9.29 g/m*3 18.7 C 0 km/h
684 03-06-2004 14:49:02 20.8 C 9.78 g/m*3 20.8 C 0 km/h
685 03-06-2004 15:01:02 20.3 C 9.32 g/m*3 20.3 C 0 km/h
686 03-06-2004 15:13:02 20.6 C 9.31 g/m*3 20.6 C 0 km/h
687 03-06-2004 15:25:02 20.6 C 9.31 g/m*3 20.6 C 0 km/h
688 03-06-2004 15:37:02 20.4 C 9.38 g/m*3 20.4 C 0 km/h
689 03-06-2004 15:49:02 20.5 C 9.43 g/m*3 20.5 C 0 km/h
690 03-06-2004 16:01:02 21 C 9.34 g/m*3 21 C 0 km/h
691 03-06-2004 16:13:02 21.5 C 9.24 g/m*3 21.5 C 0 km/h
692 03-06-2004 16:25:02 22.2 C 9.42 g/m*3 22.2 C 0 km/h
693 03-06-2004 16:37:02 21.8 C 9.4 g/m*3 21.8 C 0 km/h
694 03-06-2004 16:49:01 21.9 C 9.46 g/m*3 21.9 C 0 km/h
695 03-06-2004 17:01:03 22.5 C 9.59 g/m*3 22.5 C 0 km/h
696 03-06-2004 17:13:03 21.6 C 9.48 g/m*3 21.6 C 0 km/h
697 03-06-2004 17:25:00 21.4 C 9.56 g/m*3 21.4 C 0 km/h
698 03-06-2004 17:37:00 22.4 C 10.13 g/m*3 22.4 C 0 km/h
699 03-06-2004 17:49:01 22.5 C 9.59 g/m*3 22.5 C 0 km/h
700 03-06-2004 18:01:01 21.9 C 9.26 g/m*3 21.9 C 0 km/h
Sensor: Nr:Datum:Temp:Abs-Feuchte:Windchill:Wind:
Aussen-T/F 701 03-06-2004 18:13:01 21.7 C 8.97 g/m*3 21.7 C 0 km/h
702 03-06-2004 18:25:01 21.2 C 9.27 g/m*3 21.2 C 0 km/h
703 03-06-2004 18:37:01 20.8 C 9.6 g/m*3 20.8 C 0 km/h
704 03-06-2004 18:49:01 21.8 C 9.21 g/m*3 21.8 C 0 km/h
705 03-06-2004 19:01:01 21.2 C 9.08 g/m*3 21.2 C 0 km/h
706 03-06-2004 19:13:01 20.8 C 9.6 g/m*3 20.8 C 0 km/h
707 03-06-2004 19:25:01 20.7 C 9.36 g/m*3 20.7 C 0 km/h
708 03-06-2004 19:37:01 20 C 9.16 g/m*3 20 C 0 km/h
709 03-06-2004 19:49:01 20.3 C 9.67 g/m*3 20.3 C 0 km/h
710 03-06-2004 20:01:01 20.9 C 9.83 g/m*3 20.9 C 0 km/h
711 03-06-2004 20:13:01 21.2 C 9.82 g/m*3 21.2 C 0 km/h
712 03-06-2004 20:25:01 20.8 C 9.78 g/m*3 20.8 C 0 km/h
713 03-06-2004 20:37:01 20.4 C 9.73 g/m*3 20.4 C 0 km/h
714 03-06-2004 20:49:01 19.7 C 9.51 g/m*3 19.7 C 0 km/h
715 03-06-2004 21:01:01 19.3 C 10.12 g/m*3 19.3 C 0 km/h
716 03-06-2004 21:13:01 18.7 C 10.25 g/m*3 18.7 C 0 km/h
717 03-06-2004 21:25:00 17.8 C 10.17 g/m*3 17.8 C 0 km/h
718 03-06-2004 21:37:00 17 C 9.98 g/m*3 17 C 0 km/h
719 03-06-2004 21:49:01 16.6 C 9.89 g/m*3 16.6 C 0 km/h
720 03-06-2004 22:01:01 16 C 9.81 g/m*3 16 C 0 km/h
721 03-06-2004 22:13:01 15.8 C 10.1 g/m*3 15.8 C 0 km/h
722 03-06-2004 22:25:01 15.4 C 9.99 g/m*3 15.4 C 0 km/h
723 03-06-2004 22:37:01 15.5 C 10.18 g/m*3 15.5 C 0 km/h
724 03-06-2004 22:49:01 15.4 C 10.12 g/m*3 15.4 C 0 km/h
725 03-06-2004 23:01:01 15 C 10 g/m*3 15 C 0 km/h
Sensor: Nr:Datum:Temp:Abs-Feuchte:Windchill:Wind:
Aussen-T/F 726 03-06-2004 23:13:01 14.9 C 10.2 g/m*3 14.9 C 0 km/h
727 03-06-2004 23:25:01 14.9 C 10.2 g/m*3 14.9 C 0 km/h
728 03-06-2004 23:37:01 14.9 C 10.32 g/m*3 14.9 C 0 km/h
729 03-06-2004 23:49:01 14.7 C 10.2 g/m*3 14.7 C 0 km/h
730 04-06-2004 00:01:01 14.4 C 10.14 g/m*3 14.4 C 0 km/h
731 04-06-2004 00:13:01 14.5 C 10.32 g/m*3 14.5 C 0 km/h
732 04-06-2004 00:25:01 14.4 C 10.38 g/m*3 14.4 C 0 km/h
733 04-06-2004 00:37:01 14.1 C 10.19 g/m*3 14.1 C 0 km/h
734 04-06-2004 00:49:01 14 C 10.13 g/m*3 14 C 0 km/h
735 04-06-2004 01:01:01 13.8 C 10.37 g/m*3 13.8 C 0 km/h
736 04-06-2004 01:13:01 13.4 C 10 g/m*3 13.4 C 0 km/h
737 04-06-2004 01:25:01 13.3 C 9.94 g/m*3 13.3 C 0 km/h
738 04-06-2004 01:37:01 13.2 C 9.99 g/m*3 13.2 C 0 km/h
739 04-06-2004 01:49:01 13.1 C 10.04 g/m*3 13.1 C 0 km/h
740 04-06-2004 02:01:01 13 C 9.98 g/m*3 13 C 0 km/h
741 04-06-2004 02:13:01 13 C 9.98 g/m*3 13 C 0 km/h
742 04-06-2004 02:25:01 12.8 C 9.86 g/m*3 12.8 C 0 km/h
743 04-06-2004 02:37:01 12.8 C 9.97 g/m*3 12.8 C 0 km/h
744 04-06-2004 02:50:03 12.8 C 9.97 g/m*3 12.8 C 0 km/h
745 04-06-2004 03:02:03 12.6 C 9.74 g/m*3 12.6 C 0 km/h
746 04-06-2004 03:14:03 12.5 C 9.68 g/m*3 12.5 C 0 km/h
747 04-06-2004 03:26:03 12.3 C 9.66 g/m*3 12.3 C 0 km/h
748 04-06-2004 03:38:01 12.1 C 9.54 g/m*3 12.1 C 0 km/h
749 04-06-2004 03:50:01 12 C 9.48 g/m*3 12 C 0 km/h
750 04-06-2004 04:02:01 11.8 C 9.37 g/m*3 11.8 C 0 km/h
Sensor: Nr:Datum:Temp:Abs-Feuchte:Windchill:Wind:
Aussen-T/F 751 04-06-2004 04:14:01 11.8 C 9.47 g/m*3 11.8 C 0 km/h
752 04-06-2004 04:26:01 11.7 C 9.41 g/m*3 11.7 C 0 km/h
753 04-06-2004 04:38:01 11.6 C 9.46 g/m*3 11.6 C 0 km/h
754 04-06-2004 04:50:01 11.5 C 9.5 g/m*3 11.5 C 0 km/h
755 04-06-2004 05:02:01 11.4 C 9.44 g/m*3 11.4 C 0 km/h
756 04-06-2004 05:14:01 11.3 C 9.38 g/m*3 11.3 C 0 km/h
757 04-06-2004 05:26:00 11.4 C 9.44 g/m*3 11.4 C 0 km/h
758 04-06-2004 05:38:00 11.4 C 9.44 g/m*3 11.4 C 0 km/h
759 04-06-2004 05:50:01 11.5 C 9.5 g/m*3 11.5 C 0 km/h
760 04-06-2004 06:02:01 11.5 C 9.5 g/m*3 11.5 C 0 km/h
761 04-06-2004 06:14:01 11.5 C 9.4 g/m*3 11.5 C 0 km/h
762 04-06-2004 06:26:00 11.7 C 9.52 g/m*3 11.7 C 0 km/h
763 04-06-2004 06:38:00 11.8 C 9.47 g/m*3 11.8 C 0 km/h
764 04-06-2004 06:50:01 11.9 C 9.53 g/m*3 11.9 C 0 km/h
765 04-06-2004 07:02:01 11.9 C 9.43 g/m*3 11.9 C 0 km/h
766 04-06-2004 07:14:01 12.1 C 9.44 g/m*3 12.1 C 0 km/h
767 04-06-2004 07:26:00 12.3 C 9.56 g/m*3 12.3 C 0 km/h
768 04-06-2004 07:38:00 12.4 C 9.51 g/m*3 12.4 C 0 km/h
769 04-06-2004 07:50:01 12.8 C 9.63 g/m*3 12.8 C 0 km/h
770 04-06-2004 08:02:01 12.9 C 9.58 g/m*3 12.9 C 0 km/h
771 04-06-2004 08:14:01 13.1 C 9.59 g/m*3 13.1 C 0 km/h
772 04-06-2004 08:26:00 13.1 C 9.59 g/m*3 13.1 C 0 km/h
773 04-06-2004 08:38:00 13.3 C 9.7 g/m*3 13.3 C 0 km/h
774 04-06-2004 08:50:01 13.4 C 9.76 g/m*3 13.4 C 0 km/h
775 04-06-2004 09:02:01 13.3 C 9.82 g/m*3 13.3 C 0 km/h
Sensor: Nr:Datum:Temp:Abs-Feuchte:Windchill:Wind:
Aussen-T/F 776 04-06-2004 09:14:01 13.2 C 9.99 g/m*3 13.2 C 0 km/h
777 04-06-2004 09:26:01 13.3 C 10.17 g/m*3 13.3 C 0 km/h
778 04-06-2004 09:38:00 13.2 C 10.1 g/m*3 13.2 C 0 km/h
779 04-06-2004 09:50:01 13.2 C 10.22 g/m*3 13.2 C 0 km/h
780 04-06-2004 10:02:01 13.2 C 10.33 g/m*3 13.2 C 0 km/h
781 04-06-2004 10:14:01 13.2 C 10.33 g/m*3 13.2 C 0 km/h
782 04-06-2004 10:26:01 13.6 C 10.59 g/m*3 13.6 C 0 km/h
783 04-06-2004 10:38:00 13.6 C 10.59 g/m*3 13.6 C 0 km/h
784 04-06-2004 10:50:01 13.8 C 10.6 g/m*3 13.8 C 0 km/h
785 04-06-2004 11:02:01 14.2 C 10.75 g/m*3 14.2 C 0 km/h
786 04-06-2004 11:14:01 14.3 C 10.81 g/m*3 14.3 C 0 km/h
787 04-06-2004 11:26:01 14.5 C 10.82 g/m*3 14.5 C 0 km/h
788 04-06-2004 11:38:01 14.4 C 10.88 g/m*3 14.4 C 0 km/h
789 04-06-2004 11:50:01 14.8 C 11.15 g/m*3 14.8 C 0 km/h
790 04-06-2004 12:02:01 14.4 C 10.88 g/m*3 14.4 C 0 km/h
791 04-06-2004 12:14:01 14.4 C 11 g/m*3 14.4 C 0 km/h
792 04-06-2004 12:26:01 14.8 C 11.4 g/m*3 14.8 C 0 km/h
793 04-06-2004 12:38:01 14.8 C 11.15 g/m*3 14.8 C 0 km/h
794 04-06-2004 12:50:01 15 C 10.64 g/m*3 15 C 0 km/h
795 04-06-2004 13:02:01 15.1 C 10.32 g/m*3 15.1 C 0 km/h
796 04-06-2004 13:14:01 15.1 C 10.19 g/m*3 15.1 C 0 km/h
797 04-06-2004 13:26:01 15.1 C 9.68 g/m*3 15.1 C 0 km/h
798 04-06-2004 13:38:01 14.8 C 9.75 g/m*3 14.8 C 0 km/h
799 04-06-2004 13:50:01 14.6 C 10.14 g/m*3 14.6 C 0 km/h
800 04-06-2004 14:02:01 14.3 C 9.83 g/m*3 14.3 C 0 km/h
Sensor: Nr:Datum:Temp:Abs-Feuchte:Windchill:Wind:
Aussen-T/F 801 04-06-2004 14:14:01 14.4 C 10.01 g/m*3 14.4 C 0 km/h
802 04-06-2004 14:26:01 14.4 C 9.77 g/m*3 14.4 C 0 km/h
803 04-06-2004 14:38:01 14.2 C 9.89 g/m*3 14.2 C 0 km/h
804 04-06-2004 14:50:01 13.8 C 10.13 g/m*3 13.8 C 0 km/h
805 04-06-2004 15:02:01 14 C 10.25 g/m*3 14 C 0 km/h
806 04-06-2004 15:14:01 14.2 C 10.26 g/m*3 14.2 C 0 km/h
807 04-06-2004 15:26:01 14.4 C 10.63 g/m*3 14.4 C 0 km/h
808 04-06-2004 15:38:01 14 C 10.37 g/m*3 14 C 0 km/h
809 04-06-2004 15:50:01 14 C 10.49 g/m*3 14 C 0 km/h
810 04-06-2004 16:02:02 14.1 C 10.68 g/m*3 14.1 C 0 km/h
811 04-06-2004 16:14:02 14.1 C 10.68 g/m*3 14.1 C 0 km/h
812 04-06-2004 16:26:01 14.4 C 10.63 g/m*3 14.4 C 0 km/h
813 04-06-2004 16:38:01 14.6 C 10.64 g/m*3 14.6 C 0 km/h
814 04-06-2004 16:50:01 14.5 C 10.57 g/m*3 14.5 C 0 km/h
815 04-06-2004 17:02:01 14.6 C 10.26 g/m*3 14.6 C 0 km/h
816 04-06-2004 17:14:01 15.1 C 10.45 g/m*3 15.1 C 0 km/h
817 04-06-2004 17:26:01 15.4 C 10.51 g/m*3 15.4 C 0 km/h
818 04-06-2004 17:38:01 15.8 C 10.5 g/m*3 15.8 C 0 km/h
819 04-06-2004 17:50:01 16.1 C 10.42 g/m*3 16.1 C 0 km/h
820 04-06-2004 18:02:01 15.7 C 10.3 g/m*3 15.7 C 0 km/h
821 04-06-2004 18:14:01 15.7 C 10.7 g/m*3 15.7 C 0 km/h
822 04-06-2004 18:26:01 15.9 C 10.97 g/m*3 15.9 C 0 km/h
823 04-06-2004 18:38:01 16 C 10.63 g/m*3 16 C 0 km/h
824 04-06-2004 18:50:01 16 C 10.76 g/m*3 16 C 0 km/h
825 04-06-2004 19:02:01 16 C 10.9 g/m*3 16 C 0 km/h
Sensor: Nr:Datum:Temp:Abs-Feuchte:Windchill:Wind:
Aussen-T/F 826 04-06-2004 19:14:01 16.5 C 10.81 g/m*3 16.5 C 0 km/h
827 04-06-2004 19:26:01 16.8 C 11.01 g/m*3 16.8 C 0 km/h
828 04-06-2004 19:38:01 16.7 C 10.37 g/m*3 16.7 C 0 km/h
829 04-06-2004 19:50:01 16.8 C 10.87 g/m*3 16.8 C 0 km/h
830 04-06-2004 20:02:01 16.5 C 10.39 g/m*3 16.5 C 0 km/h
831 04-06-2004 20:14:01 15.9 C 10.29 g/m*3 15.9 C 0 km/h
832 04-06-2004 20:26:01 15.5 C 10.31 g/m*3 15.5 C 0 km/h
833 04-06-2004 20:38:01 15.5 C 10.44 g/m*3 15.5 C 0 km/h
834 04-06-2004 20:50:01 14.9 C 10.32 g/m*3 14.9 C 0 km/h
835 04-06-2004 21:02:01 14.5 C 10.32 g/m*3 14.5 C 0 km/h
836 04-06-2004 21:14:01 14.2 C 10.26 g/m*3 14.2 C 0 km/h
837 04-06-2004 21:26:02 14.1 C 10.32 g/m*3 14.1 C 0 km/h
838 04-06-2004 21:38:01 14 C 10.37 g/m*3 14 C 0 km/h
839 04-06-2004 21:50:01 14 C 10.37 g/m*3 14 C 0 km/h
840 04-06-2004 22:02:01 14 C 10.37 g/m*3 14 C 0 km/h
841 04-06-2004 22:14:01 14 C 10.37 g/m*3 14 C 0 km/h
842 04-06-2004 22:26:01 14 C 10.37 g/m*3 14 C 0 km/h
843 04-06-2004 22:38:01 13.9 C 10.43 g/m*3 13.9 C 0 km/h
844 04-06-2004 22:50:01 14 C 10.25 g/m*3 14 C 0 km/h
845 04-06-2004 23:02:01 13.8 C 10.25 g/m*3 13.8 C 0 km/h
846 04-06-2004 23:14:01 13.6 C 10.12 g/m*3 13.6 C 0 km/h
847 04-06-2004 23:26:01 13.7 C 10.18 g/m*3 13.7 C 0 km/h
848 04-06-2004 23:38:01 13.7 C 10.07 g/m*3 13.7 C 0 km/h
849 04-06-2004 23:50:01 13.7 C 10.07 g/m*3 13.7 C 0 km/h

Legende:
   Min
   Max


Maximal/Minimal-Werte vom 29.05.2004 - 04.06.2004

Sensor Min Max Avg
Temp
(Aussen-T/F)
6.4 °C
29-05-2004  05:42:01
28.9 °C
29-05-2004  17:23:02
16.14 °C
Abs-Feuchte
(Aussen-T/F)
4.28 g/m*3
29-05-2004  12:59:02
13.72 g/m*3
02-06-2004  16:00:02
8.68 g/m*3
Windchill
(Aussen-T/F)
6.4 C
29-05-2004  05:42:01
28.9 C
29-05-2004  17:23:02
16.12 C

Die Daten stammen von einer Davis Vantage Pro 2 Wetter-Station und werden unter Linux mit der Software wview2wettercgi und aufbereitet. Alle Angaben erfolgen ohne Gewähr für ihre Vollständigkeit oder Richtigkeit.
Kontakt: Rainer Krienke krienke@uni-koblenz.de . Meine Webseiten an der Uni Koblenz oder privat.
Version: $Revision: 0.78 $